Time;durP1;ratioP1;P1;durP2;ratioP2;P2;SDS_P1;SDS_P2;PMS_P1;PMS_P2;Temp;Humidity;BMP_temperature;BMP_pressure;BME280_temperature;BME280_humidity;BME280_pressure;Samples;Min_cycle;Max_cycle;Signal;HPM_P1;HPM_P2
2023/04/01 00:00:10;;;;;;;3.88;1.30;;;;;;;;;;4929486;29;20051;-78
2023/04/01 00:02:41;;;;;;;5.18;1.65;;;;;;;;;;4945986;29;20179;-78
2023/04/01 00:05:10;;;;;;;2.88;1.75;;;;;;;;;;4946687;28;20564;-78
2023/04/01 00:07:38;;;;;;;12.27;4.40;;;;;;;;;;4943580;29;20053;-79
2023/04/01 00:10:07;;;;;;;8.63;3.90;;;;;;;;;;4931422;29;20051;-79
2023/04/01 00:12:35;;;;;;;5.97;3.10;;;;;;;;;;4947649;29;20044;-81
2023/04/01 00:15:03;;;;;;;4.88;2.78;;;;;;;;;;4947927;28;20336;-78
2023/04/01 00:17:31;;;;;;;7.80;2.70;;;;;;;;;;4947232;29;20055;-82
2023/04/01 00:19:58;;;;;;;7.85;3.58;;;;;;;;;;4929649;29;21611;-78
2023/04/01 00:22:26;;;;;;;9.55;2.83;;;;;;;;;;4946222;29;20051;-78
2023/04/01 00:24:53;;;;;;;7.13;2.35;;;;;;;;;;4948459;28;20043;-80
2023/04/01 00:27:21;;;;;;;3.42;1.40;;;;;;;;;;4947331;29;20051;-78
2023/04/01 00:29:48;;;;;;;3.85;1.67;;;;;;;;;;4932304;29;20307;-78
2023/04/01 00:32:16;;;;;;;2.15;1.20;;;;;;;;;;4946214;29;20058;-80
2023/04/01 00:34:44;;;;;;;22.00;10.65;;;;;;;;;;4929318;29;20429;-81
2023/04/01 00:37:11;;;;;;;5.80;2.10;;;;;;;;;;4926612;29;20074;-79
2023/04/01 00:39:40;;;;;;;8.48;2.58;;;;;;;;;;4947220;29;20126;-80
2023/04/01 00:42:09;;;;;;;7.70;2.63;;;;;;;;;;4930902;29;20047;-78
2023/04/01 00:44:37;;;;;;;3.25;1.98;;;;;;;;;;4944733;29;20039;-78
2023/04/01 00:47:05;;;;;;;7.22;3.00;;;;;;;;;;4925759;29;20094;-81
2023/04/01 00:49:36;;;;;;;5.45;2.50;;;;;;;;;;4929877;29;20130;-79
2023/04/01 00:52:05;;;;;;;5.00;2.00;;;;;;;;;;4931151;29;20095;-78
2023/04/01 00:54:33;;;;;;;4.07;1.95;;;;;;;;;;4935204;29;20120;-81
2023/04/01 00:57:02;;;;;;;4.70;1.40;;;;;;;;;;4929874;29;20047;-78
2023/04/01 00:59:48;;;;;;;1.63;0.90;;;;;;;;;;4932162;29;20051;-79
2023/04/01 01:02:17;;;;;;;2.10;0.80;;;;;;;;;;4928621;28;20428;-78
2023/04/01 01:04:45;;;;;;;2.05;1.63;;;;;;;;;;4944872;29;20051;-78
2023/04/01 01:07:12;;;;;;;0.73;0.50;;;;;;;;;;4945055;29;20572;-78
2023/04/01 01:09:49;;;;;;;0.38;0.35;;;;;;;;;;4946927;28;20158;-80
2023/04/01 01:12:21;;;;;;;6.03;0.70;;;;;;;;;;4941276;29;20067;-78
2023/04/01 01:15:07;;;;;;;0.85;0.60;;;;;;;;;;4923504;29;20143;-78
2023/04/01 01:17:48;;;;;;;1.58;0.38;;;;;;;;;;4941800;29;20043;-79
2023/04/01 01:20:16;;;;;;;0.40;0.40;;;;;;;;;;4943920;29;20405;-80
2023/04/01 01:22:56;;;;;;;1.75;0.70;;;;;;;;;;4928652;29;20477;-79
2023/04/01 01:25:23;;;;;;;3.10;0.65;;;;;;;;;;4945268;29;20110;-78
2023/04/01 01:27:57;;;;;;;1.00;0.45;;;;;;;;;;4945883;29;20058;-78
2023/04/01 01:30:44;;;;;;;0.95;0.60;;;;;;;;;;4928859;29;20402;-81
2023/04/01 01:33:21;;;;;;;0.70;0.47;;;;;;;;;;4927744;29;20047;-78
2023/04/01 01:35:50;;;;;;;2.47;0.70;;;;;;;;;;4926715;29;20465;-80
2023/04/01 01:38:21;;;;;;;9.82;8.98;;;;;;;;;;4927947;29;20047;-80
2023/04/01 01:40:59;;;;;;;1.10;0.40;;;;;;;;;;4927625;29;20090;-78
2023/04/01 01:43:29;;;;;;;2.80;0.45;;;;;;;;;;4926123;29;20054;-80
2023/04/01 01:45:59;;;;;;;51.13;33.47;;;;;;;;;;4925532;29;20806;-80
2023/04/01 01:48:27;;;;;;;1.10;0.40;;;;;;;;;;4924378;29;20539;-78
2023/04/01 01:50:55;;;;;;;1.05;0.63;;;;;;;;;;4925611;29;20059;-79
2023/04/01 01:53:22;;;;;;;2.28;0.40;;;;;;;;;;4926368;29;20054;-80
2023/04/01 01:55:50;;;;;;;0.30;0.30;;;;;;;;;;4940470;29;20047;-81
2023/04/01 01:58:24;;;;;;;0.70;0.30;;;;;;;;;;4942675;29;20082;-81
2023/04/01 02:00:55;;;;;;;2.95;0.38;;;;;;;;;;4926255;29;20150;-80
2023/04/01 02:03:25;;;;;;;2.65;0.60;;;;;;;;;;4924868;29;20054;-79
2023/04/01 02:05:54;;;;;;;0.30;0.30;;;;;;;;;;4945369;29;20138;-80
2023/04/01 02:08:41;;;;;;;0.40;0.38;;;;;;;;;;4928510;29;20162;-78
2023/04/01 02:11:11;;;;;;;1.88;0.43;;;;;;;;;;4930002;29;20054;-78
2023/04/01 02:13:41;;;;;;;;;;;;;;;;;;4928199;28;20148;-79
2023/04/01 02:16:13;;;;;;;4.47;0.75;;;;;;;;;;4931288;29;19937;-78
2023/04/01 02:18:41;;;;;;;0.77;0.20;;;;;;;;;;4932897;29;20042;-78
2023/04/01 02:21:09;;;;;;;0.50;0.40;;;;;;;;;;4947088;29;20058;-80
2023/04/01 02:23:37;;;;;;;1.45;0.50;;;;;;;;;;4930543;29;20047;-79
2023/04/01 02:26:07;;;;;;;0.45;0.40;;;;;;;;;;4931668;29;20234;-80
2023/04/01 02:28:36;;;;;;;1.70;0.90;;;;;;;;;;4931118;29;20417;-78
2023/04/01 02:31:07;;;;;;;1.65;0.50;;;;;;;;;;4930969;29;20047;-78
2023/04/01 02:33:39;;;;;;;1.90;0.63;;;;;;;;;;4936865;29;20042;-78
2023/04/01 02:36:16;;;;;;;1.45;0.60;;;;;;;;;;4949687;29;20050;-78
2023/04/01 02:38:45;;;;;;;0.85;0.60;;;;;;;;;;4949846;29;20701;-80
2023/04/01 02:41:12;;;;;;;0.70;0.55;;;;;;;;;;4947710;29;20054;-78
2023/04/01 02:43:40;;;;;;;1.38;0.70;;;;;;;;;;4931800;29;20330;-79
2023/04/01 02:46:07;;;;;;;1.75;0.80;;;;;;;;;;4930839;29;20046;-78
2023/04/01 02:48:35;;;;;;;3.45;0.80;;;;;;;;;;4933002;29;20050;-78
2023/04/01 02:51:02;;;;;;;1.55;0.63;;;;;;;;;;4948483;29;20074;-78
2023/04/01 02:53:29;;;;;;;0.70;0.40;;;;;;;;;;4931951;29;20051;-78
2023/04/01 02:55:57;;;;;;;1.20;0.50;;;;;;;;;;4948776;29;20062;-80
2023/04/01 02:58:24;;;;;;;1.95;0.40;;;;;;;;;;4932907;29;20059;-80
2023/04/01 03:00:52;;;;;;;1.75;0.52;;;;;;;;;;4931972;29;20051;-78
2023/04/01 03:03:20;;;;;;;2.75;0.50;;;;;;;;;;4942857;29;20063;-81
2023/04/01 03:05:47;;;;;;;1.38;0.30;;;;;;;;;;4946575;29;20524;-81
2023/04/01 03:08:15;;;;;;;1.17;0.32;;;;;;;;;;4933069;29;20145;-78
2023/04/01 03:10:43;;;;;;;1.10;0.40;;;;;;;;;;4947538;28;20331;-78
2023/04/01 03:13:10;;;;;;;1.17;0.40;;;;;;;;;;4930828;29;20117;-78
2023/04/01 03:15:38;;;;;;;70.45;64.22;;;;;;;;;;4948677;29;20083;-80
2023/04/01 03:18:05;;;;;;;1.42;0.28;;;;;;;;;;4930236;29;20066;-79
2023/04/01 03:20:33;;;;;;;2.45;0.65;;;;;;;;;;4946981;29;20054;-79
2023/04/01 03:23:00;;;;;;;1.02;0.40;;;;;;;;;;4927197;29;20051;-80
2023/04/01 03:25:28;;;;;;;1.73;0.30;;;;;;;;;;4931443;28;20125;-78
2023/04/01 03:27:56;;;;;;;1.05;0.43;;;;;;;;;;4931215;29;20043;-78
2023/04/01 03:30:23;;;;;;;1.83;0.50;;;;;;;;;;4926547;29;20493;-78
2023/04/01 03:32:51;;;;;;;1.38;0.40;;;;;;;;;;4934562;29;20378;-78
2023/04/01 03:35:18;;;;;;;1.75;0.50;;;;;;;;;;4930369;29;20055;-81
2023/04/01 03:37:46;;;;;;;0.50;0.40;;;;;;;;;;4931202;29;20501;-78
2023/04/01 03:40:13;;;;;;;2.05;0.65;;;;;;;;;;4941379;29;20047;-78
2023/04/01 03:42:41;;;;;;;1.50;0.40;;;;;;;;;;4931622;29;20043;-78
2023/04/01 03:45:09;;;;;;;2.50;0.52;;;;;;;;;;4931117;29;20104;-79
2023/04/01 03:47:36;;;;;;;1.33;0.40;;;;;;;;;;4927193;29;20054;-78
2023/04/01 03:50:04;;;;;;;2.33;1.20;;;;;;;;;;4948716;29;20050;-78
2023/04/01 03:52:32;;;;;;;0.60;0.47;;;;;;;;;;4931043;29;20043;-78
2023/04/01 03:55:00;;;;;;;111.07;87.18;;;;;;;;;;4928063;29;20051;-79
2023/04/01 03:57:27;;;;;;;1.38;0.45;;;;;;;;;;4948184;29;20078;-78
2023/04/01 03:59:59;;;;;;;2.40;0.55;;;;;;;;;;4930847;29;20055;-79
2023/04/01 04:02:27;;;;;;;0.50;0.28;;;;;;;;;;4929041;29;20051;-78
2023/04/01 04:04:54;;;;;;;0.52;0.30;;;;;;;;;;4929883;29;20134;-78
2023/04/01 04:07:22;;;;;;;1.08;0.50;;;;;;;;;;4930587;29;20047;-78
2023/04/01 04:10:08;;;;;;;1.30;0.28;;;;;;;;;;4929410;29;20062;-80
2023/04/01 04:12:35;;;;;;;4.05;0.70;;;;;;;;;;4928751;29;20406;-77
2023/04/01 04:15:03;;;;;;;0.50;0.40;;;;;;;;;;4932394;29;20055;-80
2023/04/01 04:17:30;;;;;;;0.98;0.40;;;;;;;;;;4946966;29;20069;-79
2023/04/01 04:19:58;;;;;;;0.95;0.50;;;;;;;;;;4930813;29;20070;-77
2023/04/01 04:22:26;;;;;;;1.75;0.30;;;;;;;;;;4947612;29;20054;-78
2023/04/01 04:24:54;;;;;;;1.42;0.52;;;;;;;;;;4929253;29;20066;-78
2023/04/01 04:27:21;;;;;;;14.27;13.00;;;;;;;;;;4929359;29;20083;-79
2023/04/01 04:30:00;;;;;;;1.75;0.40;;;;;;;;;;4928148;29;20039;-80
2023/04/01 04:32:27;;;;;;;86.68;73.05;;;;;;;;;;4937441;29;20054;-79
2023/04/01 04:34:56;;;;;;;2.00;0.40;;;;;;;;;;4930949;29;20086;-78
2023/04/01 04:37:25;;;;;;;0.45;0.32;;;;;;;;;;4927161;29;20043;-78
2023/04/01 04:39:53;;;;;;;2.42;0.47;;;;;;;;;;4928395;29;20054;-78
2023/04/01 04:42:20;;;;;;;0.95;0.40;;;;;;;;;;4926062;29;20418;-81
2023/04/01 04:44:50;;;;;;;0.93;0.52;;;;;;;;;;4925788;29;20043;-81
2023/04/01 04:47:17;;;;;;;1.10;0.70;;;;;;;;;;4945380;29;20149;-78
2023/04/01 04:49:45;;;;;;;1.80;0.70;;;;;;;;;;4947649;29;20051;-78
2023/04/01 04:52:12;;;;;;;19.05;17.30;;;;;;;;;;4927142;29;20051;-79
2023/04/01 04:54:40;;;;;;;0.32;0.30;;;;;;;;;;4929434;29;20046;-78
2023/04/01 04:57:08;;;;;;;1.20;0.57;;;;;;;;;;4932604;29;20059;-79
2023/04/01 04:59:42;;;;;;;0.60;0.40;;;;;;;;;;4929782;29;20058;-77
2023/04/01 05:02:13;;;;;;;2.95;1.45;;;;;;;;;;4925072;29;20058;-78
2023/04/01 05:04:40;;;;;;;1.02;0.43;;;;;;;;;;4927163;29;20062;-80
2023/04/01 05:07:19;;;;;;;0.95;0.25;;;;;;;;;;4928689;29;20062;-79
2023/04/01 05:09:51;;;;;;;1.00;0.50;;;;;;;;;;4926206;29;20031;-80
2023/04/01 05:12:18;;;;;;;7.18;6.53;;;;;;;;;;4928359;29;20052;-77
2023/04/01 05:14:57;;;;;;;31.88;24.30;;;;;;;;;;4924624;28;20110;-79
2023/04/01 05:17:25;;;;;;;37.78;29.80;;;;;;;;;;4928556;29;20043;-80
2023/04/01 05:19:53;;;;;;;0.45;0.20;;;;;;;;;;4920760;29;20122;-78
2023/04/01 05:22:21;;;;;;;1.63;0.40;;;;;;;;;;4925345;29;20502;-78
2023/04/01 05:24:48;;;;;;;0.52;0.30;;;;;;;;;;4945392;28;20058;-78
2023/04/01 05:27:16;;;;;;;1.02;0.60;;;;;;;;;;4928834;29;20054;-78
2023/04/01 05:29:44;;;;;;;0.85;0.40;;;;;;;;;;4924670;28;20066;-80
2023/04/01 05:32:37;;;;;;;1.00;0.25;;;;;;;;;;4922769;29;20105;-80
2023/04/01 05:35:05;;;;;;;0.65;0.40;;;;;;;;;;4927576;29;20122;-78
2023/04/01 05:37:34;;;;;;;0.45;0.15;;;;;;;;;;4925323;29;20067;-77
2023/04/01 05:40:04;;;;;;;0.90;0.40;;;;;;;;;;4924664;29;20409;-77
2023/04/01 05:42:31;;;;;;;0.32;0.32;;;;;;;;;;4927583;28;20140;-77
2023/04/01 05:44:58;;;;;;;0.77;0.32;;;;;;;;;;4940913;28;20046;-78
2023/04/01 05:47:44;;;;;;;37.10;26.75;;;;;;;;;;4940998;28;20058;-76
2023/04/01 05:50:12;;;;;;;1.90;1.17;;;;;;;;;;4928674;28;20146;-79
2023/04/01 05:52:39;;;;;;;1.38;0.40;;;;;;;;;;4927287;29;20039;-78
2023/04/01 05:55:07;;;;;;;9.82;8.98;;;;;;;;;;4945297;28;20133;-76
2023/04/01 05:57:34;;;;;;;1.30;1.20;;;;;;;;;;4927116;29;20048;-76
2023/04/01 06:00:05;;;;;;;0.65;0.60;;;;;;;;;;4926316;29;20418;-78
2023/04/01 06:02:38;;;;;;;0.32;0.28;;;;;;;;;;4948435;28;20047;-78
2023/04/01 06:05:13;;;;;;;0.20;0.20;;;;;;;;;;4932331;28;20079;-77
2023/04/01 06:07:41;;;;;;;0.38;0.30;;;;;;;;;;4930063;28;20039;-78
2023/04/01 06:10:15;;;;;;;0.55;0.35;;;;;;;;;;4925897;28;20040;-78
2023/04/01 06:13:06;;;;;;;4.07;3.05;;;;;;;;;;4930630;28;20062;-77
2023/04/01 06:15:34;;;;;;;15.10;10.52;;;;;;;;;;4914306;29;20047;-79
2023/04/01 06:18:21;;;;;;;11.18;8.43;;;;;;;;;;4928613;29;20073;-76
2023/04/01 06:20:52;;;;;;;15.18;8.57;;;;;;;;;;4938237;28;20431;-77
2023/04/01 06:23:36;;;;;;;32.40;27.65;;;;;;;;;;4970506;23;20058;-82
2023/04/01 06:26:23;;;;;;;0.73;0.38;;;;;;;;;;4986390;28;20108;-82
2023/04/01 06:28:59;;;;;;;0.20;0.20;;;;;;;;;;4982951;28;20056;-81
2023/04/01 06:31:33;;;;;;;0.60;0.60;;;;;;;;;;4989069;28;20136;-81
2023/04/01 06:34:07;;;;;;;0.60;0.50;;;;;;;;;;4990924;28;20047;-81
2023/04/01 06:36:36;;;;;;;0.82;0.30;;;;;;;;;;4960890;28;20495;-83
2023/04/01 06:39:19;;;;;;;0.55;0.30;;;;;;;;;;4953167;28;20508;-82
2023/04/01 06:41:50;;;;;;;123.50;104.95;;;;;;;;;;4969459;28;20051;-82
2023/04/01 06:44:29;;;;;;;0.43;0.20;;;;;;;;;;4949816;28;20098;-80
2023/04/01 06:47:28;;;;;;;0.28;0.28;;;;;;;;;;4966329;28;20390;-81
2023/04/01 06:50:25;;;;;;;4.22;1.13;;;;;;;;;;4967397;28;20105;-82
2023/04/01 06:53:18;;;;;;;;;;;;;;;;;;4964573;28;20461;-83
2023/04/01 06:56:09;;;;;;;0.52;0.32;;;;;;;;;;4961185;28;19927;-83
2023/04/01 06:58:44;;;;;;;35.30;32.53;;;;;;;;;;4942481;28;20083;-83
2023/04/01 07:01:16;;;;;;;0.30;0.30;;;;;;;;;;4962644;28;20551;-82
2023/04/01 07:03:57;;;;;;;0.40;0.40;;;;;;;;;;4943235;28;20071;-82
2023/04/01 07:06:32;;;;;;;1.10;0.40;;;;;;;;;;4950777;28;20055;-81
2023/04/01 07:09:05;;;;;;;180.90;145.85;;;;;;;;;;4955322;28;20069;-82
2023/04/01 07:11:57;;;;;;;0.25;0.25;;;;;;;;;;4964383;28;20063;-82
2023/04/01 07:14:55;;;;;;;1.00;0.40;;;;;;;;;;4884556;29;20060;-82
2023/04/01 07:17:26;;;;;;;0.70;0.40;;;;;;;;;;4962052;28;20537;-81
2023/04/01 07:19:59;;;;;;;1.75;0.57;;;;;;;;;;4955848;28;20086;-82
2023/04/01 07:22:32;;;;;;;1.00;0.50;;;;;;;;;;4957843;28;20070;-83
2023/04/01 07:25:13;;;;;;;2.38;1.60;;;;;;;;;;4958741;28;20070;-83
2023/04/01 07:27:47;;;;;;;123.47;101.95;;;;;;;;;;4971948;28;20058;-83
2023/04/01 07:30:20;;;;;;;0.70;0.50;;;;;;;;;;4953020;28;20054;-83
2023/04/01 07:33:02;;;;;;;0.65;0.47;;;;;;;;;;4967679;28;20047;-83
2023/04/01 07:35:44;;;;;;;0.30;0.30;;;;;;;;;;4946914;28;20116;-83
2023/04/01 07:38:30;;;;;;;1.67;1.00;;;;;;;;;;4952913;28;20102;-82
2023/04/01 07:40:58;;;;;;;61.40;55.10;;;;;;;;;;4950475;28;20043;-82
2023/04/01 07:43:33;;;;;;;3.80;3.40;;;;;;;;;;4955530;28;20109;-82
2023/04/01 07:46:30;;;;;;;42.08;38.75;;;;;;;;;;4948071;28;20057;-82
2023/04/01 07:49:04;;;;;;;9.73;7.70;;;;;;;;;;4949353;28;20046;-83
2023/04/01 07:51:40;;;;;;;4.38;2.80;;;;;;;;;;4955069;28;20070;-81
2023/04/01 07:54:10;;;;;;;3.95;2.10;;;;;;;;;;4965176;28;20043;-81
2023/04/01 07:56:44;;;;;;;24.40;16.60;;;;;;;;;;4950157;28;20066;-83
2023/04/01 07:59:24;;;;;;;1.05;0.85;;;;;;;;;;4949253;28;20488;-81
2023/04/01 08:02:19;;;;;;;98.47;83.38;;;;;;;;;;4942718;28;20474;-83
2023/04/01 08:04:46;;;;;;;1.13;0.70;;;;;;;;;;4967988;28;20085;-82
2023/04/01 08:07:20;;;;;;;2.33;0.60;;;;;;;;;;4949458;28;20042;-82
2023/04/01 08:10:23;;;;;;;156.75;140.07;;;;;;;;;;4955398;28;20039;-82
2023/04/01 08:13:30;;;;;;;12.05;11.00;;;;;;;;;;4922699;29;20048;-83
2023/04/01 08:16:20;;;;;;;0.70;0.70;;;;;;;;;;4961259;28;20117;-82
2023/04/01 08:18:58;;;;;;;13.48;12.10;;;;;;;;;;4947611;28;20046;-81
2023/04/01 08:21:30;;;;;;;1.52;0.75;;;;;;;;;;4945121;28;20122;-82
2023/04/01 08:23:58;;;;;;;486.73;343.15;;;;;;;;;;4948719;28;20113;-82
2023/04/01 08:26:26;;;;;;;21.80;19.70;;;;;;;;;;4950462;28;20062;-83
2023/04/01 08:29:07;;;;;;;9.30;8.60;;;;;;;;;;4970104;28;20126;-83
2023/04/01 08:31:39;;;;;;;0.65;0.30;;;;;;;;;;4943938;28;20051;-83
2023/04/01 08:34:16;;;;;;;1.50;0.80;;;;;;;;;;4963191;28;20047;-83
2023/04/01 08:36:45;;;;;;;0.65;0.50;;;;;;;;;;4940828;28;20445;-83
2023/04/01 08:39:36;;;;;;;11.77;8.38;;;;;;;;;;4940285;28;20511;-83
2023/04/01 08:42:07;;;;;;;0.40;0.40;;;;;;;;;;4954299;28;20516;-82
2023/04/01 08:45:00;;;;;;;2.80;1.50;;;;;;;;;;4940685;28;20567;-83
2023/04/01 08:47:42;;;;;;;1.17;0.90;;;;;;;;;;4951111;28;20146;-83
2023/04/01 08:50:28;;;;;;;3.05;1.20;;;;;;;;;;4950408;28;20062;-84
2023/04/01 08:53:38;;;;;;;1.55;0.70;;;;;;;;;;4926987;28;20309;-83
2023/04/01 08:56:16;;;;;;;2.25;0.73;;;;;;;;;;4937868;28;20803;-84
2023/04/01 08:58:57;;;;;;;3.38;1.30;;;;;;;;;;4944733;28;20091;-82
2023/04/01 09:01:52;;;;;;;1.15;0.63;;;;;;;;;;4943665;28;20074;-85
2023/04/01 09:05:03;;;;;;;1.27;0.50;;;;;;;;;;4937886;28;20053;-83
2023/04/01 09:07:50;;;;;;;119.15;100.95;;;;;;;;;;4932750;28;20047;-83
2023/04/01 09:10:40;;;;;;;1.02;0.40;;;;;;;;;;4938640;28;20046;-83
2023/04/01 09:13:41;;;;;;;26.10;12.27;;;;;;;;;;4957498;28;20082;-85
2023/04/01 09:16:35;;;;;;;2.08;0.52;;;;;;;;;;4940697;28;20509;-84
2023/04/01 09:19:06;;;;;;;;;;;;;;;;;;4929412;28;20046;-84
2023/04/01 09:22:01;;;;;;;0.47;0.30;;;;;;;;;;4949913;28;19930;-82
2023/04/01 09:24:40;;;;;;;1.90;1.27;;;;;;;;;;4921836;28;20058;-84
2023/04/01 09:27:10;;;;;;;4.25;1.67;;;;;;;;;;4955090;28;20047;-83
2023/04/01 09:30:00;;;;;;;0.95;0.70;;;;;;;;;;4957779;28;20054;-86
2023/04/01 09:32:28;;;;;;;1.33;0.63;;;;;;;;;;4962213;28;20057;-85
2023/04/01 09:35:08;;;;;;;1.30;0.52;;;;;;;;;;4971161;28;20050;-87
2023/04/01 09:37:36;;;;;;;1.25;0.55;;;;;;;;;;4968382;28;20047;-84
2023/04/01 09:40:28;;;;;;;0.57;0.50;;;;;;;;;;4956940;28;20129;-84
2023/04/01 09:43:03;;;;;;;1.20;0.50;;;;;;;;;;4961674;28;20061;-86
2023/04/01 09:45:37;;;;;;;41.58;38.47;;;;;;;;;;4939844;28;20075;-86
2023/04/01 09:48:20;;;;;;;0.88;0.60;;;;;;;;;;4947681;28;20306;-81
2023/04/01 09:50:57;;;;;;;1.27;0.50;;;;;;;;;;4947802;28;20050;-82
2023/04/01 09:53:31;;;;;;;0.80;0.32;;;;;;;;;;4946930;28;20051;-82
2023/04/01 09:56:11;;;;;;;0.57;0.40;;;;;;;;;;4950001;28;20050;-82
2023/04/01 09:58:54;;;;;;;0.30;0.30;;;;;;;;;;4948053;28;20043;-82
2023/04/01 10:02:18;;;;;;;3.60;0.68;;;;;;;;;;4884465;29;20045;-83
2023/04/01 10:05:05;;;;;;;2.17;0.82;;;;;;;;;;4878791;29;20041;-85
2023/04/01 10:07:52;;;;;;;0.35;0.30;;;;;;;;;;4937205;28;20326;-81
2023/04/01 10:10:23;;;;;;;63.97;57.70;;;;;;;;;;4987656;28;20031;-84
2023/04/01 10:13:00;;;;;;;3.15;1.10;;;;;;;;;;4960725;28;20106;-85
2023/04/01 10:16:02;;;;;;;0.40;0.40;;;;;;;;;;4979422;28;20046;-83
2023/04/01 10:18:45;;;;;;;0.98;0.45;;;;;;;;;;4949513;28;20055;-82
2023/04/01 10:21:26;;;;;;;0.55;0.52;;;;;;;;;;4951223;28;20051;-84
2023/04/01 10:24:00;;;;;;;59.47;53.72;;;;;;;;;;4973319;28;20051;-84
2023/04/01 10:26:31;;;;;;;1.15;0.50;;;;;;;;;;4943143;28;20059;-83
2023/04/01 10:29:27;;;;;;;1.48;0.45;;;;;;;;;;4947556;28;20050;-85
2023/04/01 10:32:18;;;;;;;0.90;0.80;;;;;;;;;;4966420;28;20051;-85
2023/04/01 10:34:56;;;;;;;0.73;0.43;;;;;;;;;;4942956;28;20043;-83
2023/04/01 10:37:45;;;;;;;19.77;12.65;;;;;;;;;;4950347;28;20042;-81
2023/04/01 10:40:22;;;;;;;55.45;48.53;;;;;;;;;;4952412;28;20280;-83
2023/04/01 10:43:31;;;;;;;1.02;0.38;;;;;;;;;;4966402;28;20050;-83
2023/04/01 10:46:23;;;;;;;1.80;0.40;;;;;;;;;;4945543;28;20580;-83
2023/04/01 10:49:16;;;;;;;12.20;11.25;;;;;;;;;;4946704;28;20047;-83
2023/04/01 10:51:46;;;;;;;0.45;0.40;;;;;;;;;;4944835;28;20057;-84
2023/04/01 10:54:31;;;;;;;5.93;5.47;;;;;;;;;;4949588;28;20049;-84
2023/04/01 10:57:46;;;;;;;5.60;5.13;;;;;;;;;;4959903;28;20058;-81
2023/04/01 11:01:04;;;;;;;13.68;12.43;;;;;;;;;;4926752;28;20749;-84
2023/04/01 11:04:12;;;;;;;73.88;67.57;;;;;;;;;;4921534;28;21189;-82
2023/04/01 11:07:41;;;;;;;1.35;0.70;;;;;;;;;;4966094;28;20043;-84
2023/04/01 11:10:16;;;;;;;184.77;164.05;;;;;;;;;;4955313;28;20393;-83
2023/04/01 11:13:09;;;;;;;0.68;0.40;;;;;;;;;;4957740;28;20508;-82
2023/04/01 11:16:16;;;;;;;6.25;5.40;;;;;;;;;;4952788;28;20047;-84
2023/04/01 11:18:48;;;;;;;2.20;0.80;;;;;;;;;;4876427;29;20535;-84
2023/04/01 11:21:21;;;;;;;0.82;0.55;;;;;;;;;;4940322;28;20045;-84
2023/04/01 11:23:57;;;;;;;12.50;11.32;;;;;;;;;;4952073;28;20444;-85
2023/04/01 11:26:59;;;;;;;0.80;0.80;;;;;;;;;;4955735;28;20049;-83
2023/04/01 11:29:58;;;;;;;2.70;0.60;;;;;;;;;;4957109;28;20051;-84
2023/04/01 11:32:50;;;;;;;6.10;3.60;;;;;;;;;;4963791;28;20043;-85
2023/04/01 11:35:33;;;;;;;104.50;93.05;;;;;;;;;;4952313;28;20051;-84
2023/04/01 11:38:30;;;;;;;10.20;7.72;;;;;;;;;;4972781;28;20043;-84
2023/04/01 11:41:22;;;;;;;1.08;0.90;;;;;;;;;;4967478;28;20050;-84
2023/04/01 11:44:36;;;;;;;20.88;10.18;;;;;;;;;;4983035;28;20062;-85
2023/04/01 11:47:11;;;;;;;0.50;0.50;;;;;;;;;;4974466;28;20050;-86
2023/04/01 11:49:48;;;;;;;0.50;0.50;;;;;;;;;;4961539;28;20043;-84
2023/04/01 11:52:23;;;;;;;0.50;0.50;;;;;;;;;;4958515;28;20388;-84
2023/04/01 11:55:03;;;;;;;1.98;0.70;;;;;;;;;;4972817;28;20043;-83
2023/04/01 11:57:38;;;;;;;40.88;36.63;;;;;;;;;;4976158;28;20427;-83
2023/04/01 12:00:13;;;;;;;90.78;70.97;;;;;;;;;;4975758;28;20054;-85
2023/04/01 12:03:03;;;;;;;9.60;8.70;;;;;;;;;;4976677;28;20060;-83
2023/04/01 12:05:39;;;;;;;6.05;5.38;;;;;;;;;;4976858;28;20145;-81
2023/04/01 12:08:12;;;;;;;2.15;1.95;;;;;;;;;;4976419;28;20054;-81
2023/04/01 12:10:41;;;;;;;2.05;0.50;;;;;;;;;;4974071;28;20080;-82
2023/04/01 12:13:19;;;;;;;0.43;0.30;;;;;;;;;;4977430;28;20047;-82
2023/04/01 12:16:05;;;;;;;2.40;0.70;;;;;;;;;;4975453;28;20142;-83
2023/04/01 12:18:56;;;;;;;2.03;0.90;;;;;;;;;;4976253;28;20047;-83
2023/04/01 12:21:32;;;;;;;1.30;0.52;;;;;;;;;;4956256;28;20058;-83
2023/04/01 12:24:20;;;;;;;0.63;0.40;;;;;;;;;;4973856;28;20046;-84
2023/04/01 12:26:54;;;;;;;0.52;0.50;;;;;;;;;;4973221;28;20051;-83
2023/04/01 12:29:40;;;;;;;1.27;0.77;;;;;;;;;;4973555;28;20520;-84
2023/04/01 12:32:30;;;;;;;0.57;0.50;;;;;;;;;;4974057;28;20054;-84
2023/04/01 12:35:02;;;;;;;3.15;0.90;;;;;;;;;;4973705;28;20051;-83
2023/04/01 12:37:36;;;;;;;0.55;0.55;;;;;;;;;;4956866;28;20047;-84
2023/04/01 12:40:04;;;;;;;1.00;0.60;;;;;;;;;;4978036;28;20089;-83
2023/04/01 12:42:41;;;;;;;14.65;13.30;;;;;;;;;;4985273;28;20537;-83
2023/04/01 12:45:29;;;;;;;3.78;3.22;;;;;;;;;;4984543;28;20046;-83
2023/04/01 12:47:56;;;;;;;0.75;0.63;;;;;;;;;;4972646;28;20038;-83
2023/04/01 12:50:37;;;;;;;33.53;20.23;;;;;;;;;;4966280;28;20054;-83
2023/04/01 12:53:17;;;;;;;40.95;36.65;;;;;;;;;;4968767;28;20094;-84
2023/04/01 12:55:52;;;;;;;6.47;3.83;;;;;;;;;;4976968;28;20081;-83
2023/04/01 12:58:28;;;;;;;1.25;1.15;;;;;;;;;;4987152;28;20046;-82
2023/04/01 13:01:17;;;;;;;0.50;0.50;;;;;;;;;;4959684;28;20126;-83
2023/04/01 13:03:49;;;;;;;18.23;14.07;;;;;;;;;;4983782;28;20058;-84
2023/04/01 13:06:17;;;;;;;3.15;2.85;;;;;;;;;;4969481;28;20042;-83
2023/04/01 13:08:56;;;;;;;0.28;0.28;;;;;;;;;;4964784;28;20035;-83
2023/04/01 13:11:40;;;;;;;0.30;0.30;;;;;;;;;;4957979;28;20051;-83
2023/04/01 13:14:13;;;;;;;78.38;44.20;;;;;;;;;;4968859;28;20046;-82
2023/04/01 13:17:19;;;;;;;15.30;13.85;;;;;;;;;;4963804;28;20050;-83
2023/04/01 13:20:01;;;;;;;4.95;4.65;;;;;;;;;;4957826;28;20797;-83
2023/04/01 13:22:35;;;;;;;0.50;0.50;;;;;;;;;;4963395;28;20057;-83
2023/04/01 13:25:06;;;;;;;1.17;0.50;;;;;;;;;;4959363;28;20040;-79
2023/04/01 13:27:42;;;;;;;22.48;20.83;;;;;;;;;;4961397;28;20060;-84
2023/04/01 13:30:27;;;;;;;338.60;199.65;;;;;;;;;;4963315;28;20053;-82
2023/04/01 13:33:22;;;;;;;503.35;368.13;;;;;;;;;;4952654;28;20047;-83
2023/04/01 13:36:02;;;;;;;0.40;0.30;;;;;;;;;;4972844;28;20126;-83
2023/04/01 13:38:40;;;;;;;0.45;0.20;;;;;;;;;;4974560;28;20661;-85
2023/04/01 13:41:26;;;;;;;0.45;0.30;;;;;;;;;;4953372;28;20413;-84
2023/04/01 13:44:00;;;;;;;79.70;71.63;;;;;;;;;;4971226;28;20082;-83
2023/04/01 13:46:39;;;;;;;113.75;101.95;;;;;;;;;;4974697;28;20053;-83
2023/04/01 13:49:12;;;;;;;0.28;0.28;;;;;;;;;;4970726;28;20058;-83
2023/04/01 13:51:53;;;;;;;0.65;0.47;;;;;;;;;;4952126;28;20046;-84
2023/04/01 13:54:37;;;;;;;0.60;0.60;;;;;;;;;;4947595;28;20098;-83
2023/04/01 13:57:23;;;;;;;0.60;0.60;;;;;;;;;;4965175;28;20110;-83
2023/04/01 14:00:12;;;;;;;0.30;0.30;;;;;;;;;;4968978;28;20396;-82
2023/04/01 14:02:39;;;;;;;18.30;14.15;;;;;;;;;;4966039;28;20047;-85
2023/04/01 14:05:09;;;;;;;0.63;0.50;;;;;;;;;;4970019;28;20063;-83
2023/04/01 14:07:59;;;;;;;199.03;174.87;;;;;;;;;;4951418;28;20125;-84
2023/04/01 14:11:15;;;;;;;19.40;15.98;;;;;;;;;;4970771;28;20129;-84
2023/04/01 14:13:45;;;;;;;41.30;37.58;;;;;;;;;;4950221;28;20051;-85
2023/04/01 14:16:32;;;;;;;2.08;0.40;;;;;;;;;;4974596;28;20043;-83
2023/04/01 14:19:25;;;;;;;81.47;68.65;;;;;;;;;;4974015;28;20106;-82
2023/04/01 14:22:17;;;;;;;2.80;2.08;;;;;;;;;;4973469;28;20039;-85
2023/04/01 14:25:01;;;;;;;1.10;1.00;;;;;;;;;;4976903;28;20057;-82
2023/04/01 14:27:32;;;;;;;0.80;0.80;;;;;;;;;;4959476;28;20064;-84
2023/04/01 14:30:11;;;;;;;306.67;275.25;;;;;;;;;;4976510;28;20039;-84
2023/04/01 14:32:50;;;;;;;0.40;0.40;;;;;;;;;;4972896;28;20043;-84
2023/04/01 14:35:42;;;;;;;11.15;9.38;;;;;;;;;;4982699;28;20054;-82
2023/04/01 14:38:28;;;;;;;175.57;143.65;;;;;;;;;;4977247;28;20555;-82
2023/04/01 14:41:17;;;;;;;0.30;0.30;;;;;;;;;;4955626;28;20050;-83
2023/04/01 14:44:17;;;;;;;9.95;9.20;;;;;;;;;;4971949;28;20051;-83
2023/04/01 14:46:50;;;;;;;0.50;0.50;;;;;;;;;;4976856;28;20046;-82
2023/04/01 14:49:36;;;;;;;32.88;29.58;;;;;;;;;;4957327;28;20755;-84
2023/04/01 14:52:06;;;;;;;0.52;0.52;;;;;;;;;;4969782;28;20039;-83
2023/04/01 14:54:36;;;;;;;9.00;7.10;;;;;;;;;;4977249;28;20115;-84
2023/04/01 14:57:18;;;;;;;0.47;0.47;;;;;;;;;;4985882;28;20086;-85
2023/04/01 14:59:50;;;;;;;0.50;0.50;;;;;;;;;;4979837;28;20047;-82
2023/04/01 15:02:26;;;;;;;0.40;0.40;;;;;;;;;;4973228;28;20047;-83
2023/04/01 15:04:58;;;;;;;0.60;0.60;;;;;;;;;;4984880;28;20123;-83
2023/04/01 15:07:36;;;;;;;12.35;11.38;;;;;;;;;;4975751;28;20074;-83
2023/04/01 15:10:06;;;;;;;0.73;0.68;;;;;;;;;;4967803;28;20388;-83
2023/04/01 15:12:44;;;;;;;18.45;15.65;;;;;;;;;;4968548;28;20101;-84
2023/04/01 15:15:21;;;;;;;0.43;0.43;;;;;;;;;;4971225;28;20071;-82
2023/04/01 15:18:07;;;;;;;268.60;221.05;;;;;;;;;;4963489;28;20047;-83
2023/04/01 15:20:49;;;;;;;12.27;9.73;;;;;;;;;;4970167;28;20126;-85
2023/04/01 15:23:22;;;;;;;0.30;0.30;;;;;;;;;;4963119;28;20390;-83
2023/04/01 15:25:59;;;;;;;7.47;5.65;;;;;;;;;;4968088;28;20039;-82
2023/04/01 15:28:31;;;;;;;8.43;6.68;;;;;;;;;;4964544;28;20385;-83
2023/04/01 15:31:22;;;;;;;2.88;1.02;;;;;;;;;;4968918;28;20596;-82
2023/04/01 15:34:08;;;;;;;2.42;0.70;;;;;;;;;;4964821;28;20058;-83
2023/04/01 15:36:40;;;;;;;172.10;155.93;;;;;;;;;;4966318;28;20053;-83